Time;durP1;ratioP1;P1;durP2;ratioP2;P2;SDS_P1;SDS_P2;PMS_P1;PMS_P2;Temp;Humidity;BMP_temperature;BMP_pressure;BME280_temperature;BME280_humidity;BME280_pressure;Samples;Min_cycle;Max_cycle;Signal;HPM_P1;HPM_P2
2022/07/10 00:02:02;;;;;;;4.32;0.82;;;;;;;15.26;89.02;102842.09;5008902;28;20060;-31
2022/07/10 00:04:31;;;;;;;2.97;0.70;;;;;;;15.26;89.10;102845.75;5009270;28;20071;-31
2022/07/10 00:07:01;;;;;;;5.80;0.80;;;;;;;15.27;89.20;102844.63;5006169;28;20402;-31
2022/07/10 00:09:29;;;;;;;3.58;0.82;;;;;;;15.29;89.09;102839.56;5009076;28;20044;-30
2022/07/10 00:11:57;;;;;;;3.35;0.80;;;;;;;15.32;89.17;102840.97;5011436;28;20042;-36
2022/07/10 00:14:25;;;;;;;4.43;0.90;;;;;;;15.35;89.00;102832.81;5009333;28;20411;-31
2022/07/10 00:16:52;;;;;;;4.30;0.85;;;;;;;15.39;89.17;102830.25;5014317;28;20056;-32
2022/07/10 00:19:20;;;;;;;5.20;0.90;;;;;;;15.41;89.30;102828.84;5014315;28;20148;-32
2022/07/10 00:21:50;;;;;;;6.68;0.90;;;;;;;15.44;89.31;102833.06;5014989;28;20077;-30
2022/07/10 00:24:17;;;;;;;3.53;1.10;;;;;;;15.46;89.63;102823.22;5014551;28;20054;-30
2022/07/10 00:26:46;;;;;;;4.88;1.00;;;;;;;15.49;89.74;102827.44;5014682;28;20136;-35
2022/07/10 00:29:14;;;;;;;3.72;0.90;;;;;;;15.49;90.10;102813.38;5014164;28;20085;-32
2022/07/10 00:31:42;;;;;;;5.05;1.00;;;;;;;15.48;90.00;102818.16;5013233;28;20372;-33
2022/07/10 00:34:10;;;;;;;5.35;0.75;;;;;;;15.48;90.06;102815.34;5014877;28;20052;-31
2022/07/10 00:36:37;;;;;;;5.65;1.15;;;;;;;15.47;90.26;102816.47;5014767;28;20049;-34
2022/07/10 00:39:06;;;;;;;4.78;0.90;;;;;;;15.46;90.65;102820.41;5014355;28;20053;-30
2022/07/10 00:41:34;;;;;;;6.55;1.27;;;;;;;15.46;90.85;102819.56;5014496;28;20042;-37
2022/07/10 00:44:03;;;;;;;7.78;1.10;;;;;;;15.45;90.91;102817.88;5014800;28;20104;-33
2022/07/10 00:46:32;;;;;;;6.28;1.00;;;;;;;15.44;91.35;102819.84;5014390;28;20049;-32
2022/07/10 00:49:00;;;;;;;5.57;0.80;;;;;;;15.45;91.58;102817.88;5014651;28;20053;-32
2022/07/10 00:51:30;;;;;;;3.58;0.70;;;;;;;15.45;91.86;102813.09;5013751;28;20053;-41
2022/07/10 00:54:00;;;;;;;3.53;0.80;;;;;;;15.46;92.03;102811.13;5014934;28;20046;-33
2022/07/10 00:56:29;;;;;;;5.07;1.17;;;;;;;15.48;92.22;102797.63;5014194;28;20511;-33
2022/07/10 00:58:58;;;;;;;4.03;1.23;;;;;;;15.50;92.84;102801.84;5013820;28;20103;-41
2022/07/10 01:01:25;;;;;;;2.90;0.80;;;;;;;15.53;93.00;102800.44;5014191;28;20058;-31
2022/07/10 01:03:53;;;;;;;7.03;1.05;;;;;;;15.56;93.19;102804.69;5014613;28;20042;-31
2022/07/10 01:06:21;;;;;;;6.15;1.23;;;;;;;15.58;93.32;102793.97;5014166;28;20049;-32
2022/07/10 01:08:49;;;;;;;5.53;1.20;;;;;;;15.59;93.88;102804.94;5014389;28;20368;-39
2022/07/10 01:11:17;;;;;;;6.07;1.10;;;;;;;15.62;94.15;102795.06;5014193;28;20397;-32
2022/07/10 01:13:46;;;;;;;7.30;1.08;;;;;;;15.63;93.92;102796.75;5013419;28;20076;-32
2022/07/10 01:16:14;;;;;;;5.40;1.13;;;;;;;15.64;93.99;102782.41;5014622;28;20150;-32
2022/07/10 01:18:42;;;;;;;6.78;1.20;;;;;;;15.65;94.26;102784.09;5014280;28;20045;-33
2022/07/10 01:21:25;;;;;;;4.07;0.93;;;;;;;15.70;94.39;102786.06;5013570;28;20085;-31
2022/07/10 01:23:53;;;;;;;5.38;1.20;;;;;;;15.68;94.72;102789.16;5010586;28;20056;-32
2022/07/10 01:26:23;;;;;;;6.53;1.40;;;;;;;15.72;94.63;102775.34;5012762;28;20042;-39
2022/07/10 01:28:53;;;;;;;4.53;0.90;;;;;;;15.73;94.74;102780.69;5013737;28;20050;-41
2022/07/10 01:31:24;;;;;;;6.30;1.20;;;;;;;15.74;94.60;102779.56;5014219;28;20073;-35
2022/07/10 01:33:53;;;;;;;2.95;0.90;;;;;;;15.77;94.77;102780.97;5013078;28;20156;-31
2022/07/10 01:36:21;;;;;;;5.45;1.20;;;;;;;15.78;95.09;102777.03;5013923;28;20053;-31
2022/07/10 01:38:54;;;;;;;4.78;1.15;;;;;;;15.79;95.10;102779.53;5013467;28;20054;-32
2022/07/10 01:41:21;;;;;;;3.38;0.95;;;;;;;15.79;95.29;102773.03;5013504;28;20459;-32
2022/07/10 01:43:50;;;;;;;4.45;1.35;;;;;;;15.80;95.54;102769.09;5013342;28;20052;-31
2022/07/10 01:46:17;;;;;;;7.88;1.30;;;;;;;15.82;95.78;102775.28;5013789;28;20477;-32
2022/07/10 01:48:45;;;;;;;3.40;1.00;;;;;;;15.83;95.89;102774.16;5012703;28;20057;-31
2022/07/10 01:51:14;;;;;;;7.65;1.33;;;;;;;15.85;96.04;102778.38;5013702;28;20046;-32
2022/07/10 01:53:42;;;;;;;7.07;1.33;;;;;;;15.84;96.17;102775.84;5013473;28;20486;-33
2022/07/10 01:56:13;;;;;;;6.35;1.00;;;;;;;15.86;96.28;102773.59;5013083;28;20092;-37
2022/07/10 01:58:41;;;;;;;4.50;1.48;;;;;;;15.86;96.35;102776.41;5013326;28;20049;-32
2022/07/10 02:01:10;;;;;;;5.18;1.10;;;;;;;15.87;96.47;102766.84;5013516;28;20044;-37
2022/07/10 02:06:23;;;;;;;5.47;1.10;;;;;;;15.87;96.50;102764.03;5013377;28;20491;-36
2022/07/10 02:08:51;;;;;;;7.03;1.10;;;;;;;15.89;96.85;102764.56;5012082;28;20033;-40
2022/07/10 02:11:21;;;;;;;7.35;1.10;;;;;;;15.92;96.95;102769.63;5013191;28;20080;-40
2022/07/10 02:13:48;;;;;;;9.25;1.77;;;;;;;15.91;97.03;102765.13;5013000;28;20050;-34
2022/07/10 02:16:16;;;;;;;4.20;1.00;;;;;;;15.94;97.12;102767.38;5012277;28;20038;-33
2022/07/10 02:18:44;;;;;;;3.63;1.00;;;;;;;15.94;97.04;102756.09;5013350;28;20049;-32
2022/07/10 02:21:12;;;;;;;3.83;1.05;;;;;;;15.96;97.32;102759.47;5012555;28;20045;-32
2022/07/10 02:23:40;;;;;;;5.50;1.30;;;;;;;15.99;97.36;102763.66;5012102;28;20384;-36
2022/07/10 02:26:08;;;;;;;7.72;1.25;;;;;;;15.98;97.54;102759.19;5012714;28;20164;-34
2022/07/10 02:28:37;;;;;;;8.35;1.35;;;;;;;15.96;97.32;102762.28;5012881;28;20132;-32
2022/07/10 02:31:06;;;;;;;5.80;1.42;;;;;;;15.95;97.35;102760.63;5008175;28;20053;-34
2022/07/10 02:33:34;;;;;;;7.05;1.23;;;;;;;15.95;97.42;102763.44;5013099;28;20557;-32
2022/07/10 02:36:01;;;;;;;3.67;0.90;;;;;;;15.97;97.58;102763.97;5012329;28;20052;-32
2022/07/10 02:38:29;;;;;;;6.88;1.50;;;;;;;15.99;97.82;102767.31;5011297;28;20045;-32
2022/07/10 02:40:57;;;;;;;6.00;1.27;;;;;;;15.98;97.86;102765.66;5012344;28;20056;-32
2022/07/10 02:43:25;;;;;;;4.45;1.17;;;;;;;15.99;98.14;102763.66;5012652;28;20392;-34
2022/07/10 02:45:54;;;;;;;4.95;0.90;;;;;;;15.98;98.27;102745.13;5011447;28;20403;-35
2022/07/10 02:48:22;;;;;;;5.75;1.10;;;;;;;15.98;98.42;102745.97;5012524;28;20492;-33
2022/07/10 02:50:49;;;;;;;5.97;1.60;;;;;;;15.98;98.74;102748.78;5011476;28;20045;-33
2022/07/10 02:53:17;;;;;;;5.88;1.15;;;;;;;15.99;99.32;102755.22;5012499;28;20058;-32
2022/07/10 02:55:45;;;;;;;5.05;1.15;;;;;;;15.98;99.61;102753.56;5012094;28;20038;-33
2022/07/10 02:58:15;;;;;;;7.68;1.55;;;;;;;15.99;99.94;102749.59;5011599;28;20060;-32
2022/07/10 03:00:42;;;;;;;4.78;1.13;;;;;;;15.99;100.00;102743.94;5012014;28;20576;-31
2022/07/10 03:03:12;;;;;;;5.45;1.50;;;;;;;16.00;100.00;102740.00;5012411;28;20050;-33
2022/07/10 03:05:39;;;;;;;4.32;1.00;;;;;;;15.98;100.00;102745.97;5011224;28;20517;-33
2022/07/10 03:08:07;;;;;;;3.88;1.10;;;;;;;15.98;100.00;102745.13;5012469;28;20192;-33
2022/07/10 03:10:35;;;;;;;5.30;1.38;;;;;;;15.97;100.00;102744.28;5011937;28;20048;-33
2022/07/10 03:13:03;;;;;;;8.30;1.38;;;;;;;15.98;100.00;102739.47;5007242;28;20044;-32
2022/07/10 03:15:31;;;;;;;3.88;0.85;;;;;;;15.99;100.00;102739.16;5012376;28;20056;-32
2022/07/10 03:17:59;;;;;;;8.55;1.20;;;;;;;16.01;100.00;102736.06;5011915;28;20045;-33
2022/07/10 03:20:28;;;;;;;6.25;1.42;;;;;;;16.04;100.00;102735.47;5011380;28;20050;-33
2022/07/10 03:22:56;;;;;;;5.60;1.30;;;;;;;16.04;100.00;102733.50;5011122;28;20053;-38
2022/07/10 03:25:24;;;;;;;5.22;1.27;;;;;;;16.04;100.00;102738.31;5011997;28;20041;-36
2022/07/10 03:27:52;;;;;;;7.03;1.48;;;;;;;16.02;100.00;102741.41;5011367;28;20056;-32
2022/07/10 03:30:20;;;;;;;4.07;0.95;;;;;;;16.01;100.00;102739.72;5012149;28;20065;-40
2022/07/10 03:32:48;;;;;;;4.78;1.00;;;;;;;16.01;100.00;102739.72;5011780;28;20136;-35
2022/07/10 03:35:16;;;;;;;6.63;1.50;;;;;;;16.00;100.00;102735.22;5011397;28;20380;-33
2022/07/10 03:37:45;;;;;;;5.60;1.30;;;;;;;15.99;100.00;102730.72;5011294;28;20073;-32
2022/07/10 03:40:13;;;;;;;5.25;1.13;;;;;;;15.98;100.00;102734.69;5011228;28;20049;-34
2022/07/10 03:42:41;;;;;;;5.00;1.10;;;;;;;15.98;100.00;102734.69;5011409;28;20046;-32
2022/07/10 03:45:09;;;;;;;7.35;1.20;;;;;;;16.00;100.00;102728.75;5011951;28;20054;-39
2022/07/10 03:47:37;;;;;;;4.70;1.10;;;;;;;16.00;100.00;102723.09;5010794;28;20121;-33
2022/07/10 03:50:05;;;;;;;7.75;1.20;;;;;;;15.99;100.00;102733.53;5011413;28;20483;-34
2022/07/10 03:52:33;;;;;;;5.15;1.25;;;;;;;16.01;100.00;102722.81;5011368;28;20046;-33
2022/07/10 03:55:02;;;;;;;6.35;1.20;;;;;;;16.01;100.00;102725.63;5011218;28;20042;-32
2022/07/10 04:00:15;;;;;;;5.22;1.10;;;;;;;15.99;100.00;102716.63;5001425;28;20052;-33
2022/07/10 04:02:43;;;;;;;4.55;1.08;;;;;;;16.01;100.00;102716.34;5010598;28;20125;-33
2022/07/10 04:05:11;;;;;;;6.45;1.10;;;;;;;16.02;100.00;102724.50;5011908;28;20044;-33
2022/07/10 04:07:39;;;;;;;5.45;1.00;;;;;;;16.04;100.00;102722.25;5011724;28;20058;-32
2022/07/10 04:10:09;;;;;;;3.58;1.20;;;;;;;16.05;100.00;102729.56;5007669;28;20042;-33
2022/07/10 04:12:37;;;;;;;4.93;0.95;;;;;;;16.05;100.00;102725.91;5011878;28;20081;-33
2022/07/10 04:15:06;;;;;;;6.05;1.08;;;;;;;16.06;100.00;102722.81;5010652;28;20052;-35
2022/07/10 04:17:34;;;;;;;3.58;1.02;;;;;;;16.07;100.00;102718.00;5011690;28;20056;-33
2022/07/10 04:20:02;;;;;;;3.22;0.90;;;;;;;16.09;100.00;102724.19;5011530;28;20046;-35
2022/07/10 04:22:30;;;;;;;8.68;1.05;;;;;;;16.11;100.00;102717.16;5010865;28;20133;-34
2022/07/10 04:24:58;;;;;;;6.22;1.10;;;;;;;16.11;100.00;102707.84;5011288;28;20046;-33
2022/07/10 04:27:27;;;;;;;5.10;0.98;;;;;;;16.13;100.00;102717.69;4992205;28;20418;-32
2022/07/10 04:29:55;;;;;;;5.38;1.20;;;;;;;16.13;100.00;102709.25;5009464;28;20045;-35
2022/07/10 04:32:22;;;;;;;3.22;0.90;;;;;;;16.14;100.00;102713.75;5011843;28;20049;-37
2022/07/10 04:34:50;;;;;;;5.75;1.10;;;;;;;16.13;100.00;102714.88;5011313;28;20050;-40
2022/07/10 04:37:18;;;;;;;4.72;1.08;;;;;;;16.14;100.00;102710.09;5010790;28;20504;-37
2022/07/10 04:39:46;;;;;;;3.17;1.20;;;;;;;16.15;100.00;102711.78;5011166;28;20414;-39
2022/07/10 04:42:14;;;;;;;4.97;0.98;;;;;;;16.17;100.00;102710.34;5011259;28;20145;-38
2022/07/10 04:44:43;;;;;;;3.25;0.90;;;;;;;16.19;100.00;102712.84;5010201;28;20046;-37
2022/07/10 04:47:11;;;;;;;3.40;1.00;;;;;;;16.20;100.00;102714.53;5011429;28;20049;-34
2022/07/10 04:49:39;;;;;;;5.20;0.90;;;;;;;16.18;100.00;102714.84;5011065;28;20144;-33
2022/07/10 04:52:07;;;;;;;3.15;0.80;;;;;;;16.21;100.00;102707.75;5010307;28;20068;-33
2022/07/10 04:54:35;;;;;;;7.03;1.30;;;;;;;16.25;100.00;102703.25;5010971;28;20042;-32
2022/07/10 04:57:02;;;;;;;3.15;0.82;;;;;;;16.30;100.00;102708.84;5011176;28;20042;-32
2022/07/10 04:59:30;;;;;;;4.32;0.88;;;;;;;16.35;100.00;102714.44;5010087;28;20056;-34
2022/07/10 05:02:00;;;;;;;4.88;1.25;;;;;;;16.41;100.00;102709.59;5014268;28;20160;-33
2022/07/10 05:04:28;;;;;;;4.80;0.82;;;;;;;16.45;100.00;102719.16;5013820;28;20042;-33
2022/07/10 05:06:55;;;;;;;4.18;0.80;;;;;;;16.49;100.00;102715.47;5014597;28;20133;-33
2022/07/10 05:09:23;;;;;;;2.83;0.85;;;;;;;16.50;100.00;102719.97;5014370;28;20046;-33
2022/07/10 05:11:51;;;;;;;2.92;0.80;;;;;;;16.47;100.00;102725.34;5013636;28;20046;-33
2022/07/10 05:14:19;;;;;;;2.50;0.80;;;;;;;16.46;100.00;102726.47;5014629;28;20132;-36
2022/07/10 05:16:47;;;;;;;2.97;0.90;;;;;;;16.45;100.00;102713.50;5014313;28;20050;-32
2022/07/10 05:19:16;;;;;;;3.47;0.90;;;;;;;16.44;100.00;102714.66;5013576;28;20457;-39
2022/07/10 05:21:44;;;;;;;3.35;0.90;;;;;;;16.44;100.00;102709.84;5013876;28;20053;-38
2022/07/10 05:24:11;;;;;;;4.03;0.90;;;;;;;16.46;100.00;102715.19;5014624;28;20042;-42
2022/07/10 05:26:39;;;;;;;4.25;1.00;;;;;;;16.47;100.00;102714.06;5013250;28;20065;-37
2022/07/10 05:29:07;;;;;;;5.80;1.17;;;;;;;16.49;100.00;102718.28;5014142;28;20491;-36
2022/07/10 05:31:35;;;;;;;7.30;1.58;;;;;;;16.53;100.00;102724.16;5014053;28;20060;-33
2022/07/10 05:34:03;;;;;;;3.92;0.90;;;;;;;16.56;100.00;102715.13;5013321;28;20052;-40
2022/07/10 05:36:32;;;;;;;4.88;1.08;;;;;;;16.60;100.00;102719.03;5013640;28;20053;-39
2022/07/10 05:39:00;;;;;;;3.53;1.00;;;;;;;16.61;100.00;102720.69;5014057;28;20041;-41
2022/07/10 05:41:28;;;;;;;3.63;1.10;;;;;;;16.63;100.00;102726.91;5013129;28;20050;-33
2022/07/10 05:43:56;;;;;;;4.25;0.90;;;;;;;16.66;100.00;102708.59;5013977;28;20058;-32
2022/07/10 05:46:24;;;;;;;3.92;0.90;;;;;;;16.68;100.00;102706.31;5013623;28;20409;-33
2022/07/10 05:48:52;;;;;;;4.55;0.93;;;;;;;16.69;99.87;102702.34;5012722;28;20046;-35
2022/07/10 05:51:19;;;;;;;2.97;0.90;;;;;;;16.73;100.00;102709.09;5013269;28;20052;-33
2022/07/10 05:54:09;;;;;;;6.05;1.05;;;;;;;16.76;100.00;102709.34;4993308;28;20057;-38
2022/07/10 05:56:37;;;;;;;4.07;0.82;;;;;;;16.77;99.63;102701.72;5004074;28;20057;-34
2022/07/10 05:59:04;;;;;;;3.88;0.98;;;;;;;16.80;99.57;102712.38;5013821;28;20042;-33
2022/07/10 06:01:32;;;;;;;3.85;0.90;;;;;;;16.86;99.66;102703.59;5012784;28;20409;-35
2022/07/10 06:04:01;;;;;;;4.80;0.90;;;;;;;16.92;99.53;102710.03;5012844;28;20483;-34
2022/07/10 06:06:29;;;;;;;2.50;0.80;;;;;;;16.96;99.08;102708.31;5012337;28;20046;-37
2022/07/10 06:08:58;;;;;;;3.38;0.90;;;;;;;16.99;99.02;102712.47;5009653;28;20415;-40
2022/07/10 06:11:27;;;;;;;3.17;1.00;;;;;;;17.01;98.58;102718.66;5012617;28;20137;-34
2022/07/10 06:13:56;;;;;;;5.32;0.80;;;;;;;16.99;98.24;102718.13;5012005;28;20571;-46
2022/07/10 06:16:24;;;;;;;3.13;0.70;;;;;;;16.99;98.12;102712.47;5011738;28;20367;-35
2022/07/10 06:18:52;;;;;;;5.35;0.90;;;;;;;16.99;97.96;102710.50;5012340;28;20061;-33
2022/07/10 06:21:21;;;;;;;3.95;1.00;;;;;;;17.00;97.92;102717.84;5012353;28;20060;-33
2022/07/10 06:23:50;;;;;;;2.28;0.70;;;;;;;17.04;97.93;102710.47;5009933;28;20491;-35
2022/07/10 06:26:17;;;;;;;5.65;1.08;;;;;;;17.11;97.97;102708.13;5012220;28;20132;-33
2022/07/10 06:28:47;;;;;;;3.55;0.80;;;;;;;17.19;97.38;102713.13;5010866;28;20140;-36
2022/07/10 06:31:15;;;;;;;4.20;0.93;;;;;;;17.31;97.12;102715.53;5011322;28;20530;-33
2022/07/10 06:33:43;;;;;;;3.38;1.00;;;;;;;17.43;96.95;102713.13;5011491;28;20495;-33
2022/07/10 06:36:12;;;;;;;3.45;0.82;;;;;;;17.52;96.38;102719.81;5011267;28;20081;-32
2022/07/10 06:38:41;;;;;;;4.32;1.00;;;;;;;17.60;96.41;102715.44;5011323;28;20056;-37
2022/07/10 06:41:10;;;;;;;3.65;1.00;;;;;;;17.65;95.93;102714.59;5011655;28;20064;-39
2022/07/10 06:43:38;;;;;;;4.18;1.00;;;;;;;17.73;95.56;102716.75;5010625;28;20525;-32
2022/07/10 06:46:07;;;;;;;3.53;0.95;;;;;;;17.79;95.60;102718.34;5011928;28;20432;-39
2022/07/10 06:48:36;;;;;;;4.10;1.00;;;;;;;17.89;95.75;102712.56;5011471;28;20042;-32
2022/07/10 06:51:06;;;;;;;2.75;0.80;;;;;;;18.00;94.57;102714.09;5011051;28;20054;-34
2022/07/10 06:53:34;;;;;;;3.88;1.00;;;;;;;18.08;93.62;102712.59;5010824;28;20056;-33
2022/07/10 06:56:02;;;;;;;2.03;0.77;;;;;;;18.19;93.69;102709.28;5011658;28;20076;-35
2022/07/10 06:58:30;;;;;;;2.60;1.00;;;;;;;18.35;93.70;102706.25;5010625;28;20133;-32
2022/07/10 07:00:58;;;;;;;4.30;1.00;;;;;;;18.49;93.26;102705.16;5011662;28;20157;-34
2022/07/10 07:03:27;;;;;;;4.10;0.82;;;;;;;18.59;92.87;102699.34;5011336;28;20061;-40
2022/07/10 07:05:55;;;;;;;2.58;0.85;;;;;;;18.69;92.76;102706.81;5010377;28;20424;-41
2022/07/10 07:08:23;;;;;;;2.90;0.70;;;;;;;18.75;91.87;102711.25;5011460;28;20046;-36
2022/07/10 07:10:50;;;;;;;2.97;0.70;;;;;;;18.81;91.71;102715.66;5011107;28;20054;-32
2022/07/10 07:13:18;;;;;;;1.95;0.70;;;;;;;18.83;90.96;102715.34;5010955;28;20157;-35
2022/07/10 07:15:54;;;;;;;3.35;0.70;;;;;;;18.84;90.66;102717.03;5011071;28;20141;-34
2022/07/10 07:18:31;;;;;;;3.78;0.80;;;;;;;18.85;90.46;102721.53;5010395;28;20058;-33
2022/07/10 07:23:46;;;;;;;4.75;1.13;;;;;;;18.86;90.27;102718.41;5009410;28;20120;-38
2022/07/10 07:26:14;;;;;;;3.63;0.80;;;;;;;18.86;90.56;102720.38;5009729;28;20042;-32
2022/07/10 07:28:42;;;;;;;3.60;0.80;;;;;;;18.89;90.93;102723.44;5010456;28;20049;-32
2022/07/10 07:31:10;;;;;;;3.42;0.90;;;;;;;18.90;90.74;102716.63;5011067;28;20130;-33
2022/07/10 07:33:42;;;;;;;3.38;0.75;;;;;;;18.92;90.75;102717.16;4991569;28;20046;-33
2022/07/10 07:36:11;;;;;;;2.03;0.75;;;;;;;19.08;91.53;102711.22;5010768;28;20088;-33
2022/07/10 07:38:39;;;;;;;2.90;0.93;;;;;;;19.29;90.26;102721.00;5010776;28;20141;-32
2022/07/10 07:41:08;;;;;;;3.03;0.90;;;;;;;19.45;89.37;102716.69;5009388;28;20042;-32
2022/07/10 07:43:36;;;;;;;3.95;0.80;;;;;;;19.56;88.00;102723.03;5010625;28;20062;-33
2022/07/10 07:46:04;;;;;;;2.83;0.90;;;;;;;19.64;87.25;102721.44;5009805;28;20141;-37
2022/07/10 07:48:32;;;;;;;2.55;0.70;;;;;;;19.70;86.68;102729.53;5010857;28;20049;-35
2022/07/10 07:51:00;;;;;;;2.92;0.90;;;;;;;19.76;85.95;102721.75;5010317;28;20493;-40
2022/07/10 07:53:29;;;;;;;3.60;0.80;;;;;;;19.86;86.06;102724.34;5004582;28;20053;-40
2022/07/10 07:55:57;;;;;;;2.65;0.70;;;;;;;19.91;86.02;102721.41;5008888;28;20095;-32
2022/07/10 07:58:25;;;;;;;3.42;0.80;;;;;;;19.91;85.11;102721.41;5010249;28;20052;-32
2022/07/10 08:00:52;;;;;;;2.90;0.88;;;;;;;19.93;85.64;102730.44;5009364;28;20050;-34
2022/07/10 08:03:20;;;;;;;2.63;0.70;;;;;;;19.97;85.64;102724.97;5010009;28;20130;-32
2022/07/10 08:06:09;;;;;;;3.00;0.80;;;;;;;19.95;85.10;102716.81;5009572;28;20041;-33
2022/07/10 08:08:38;;;;;;;3.33;0.77;;;;;;;19.98;85.62;102710.50;5009199;28;20054;-40
2022/07/10 08:11:06;;;;;;;3.85;0.88;;;;;;;19.99;85.15;102716.97;5010007;28;20057;-41
2022/07/10 08:13:34;;;;;;;2.65;0.88;;;;;;;19.95;84.62;102716.81;5010473;28;20046;-33
2022/07/10 08:16:02;;;;;;;4.07;0.80;;;;;;;19.97;84.57;102713.66;5009291;28;20058;-42
2022/07/10 08:18:35;;;;;;;3.15;0.90;;;;;;;19.97;84.83;102706.00;5009927;28;20046;-32
2022/07/10 08:21:04;;;;;;;2.85;0.85;;;;;;;19.99;84.89;102708.47;5009864;28;20042;-33
2022/07/10 08:23:32;;;;;;;5.57;1.00;;;;;;;20.04;84.28;102708.38;5004558;28;20042;-33
2022/07/10 08:26:01;;;;;;;2.25;0.70;;;;;;;20.08;83.87;102713.09;5010595;28;20058;-32
2022/07/10 08:28:29;;;;;;;5.00;0.90;;;;;;;20.04;83.69;102706.38;5008970;28;20540;-32
2022/07/10 08:30:57;;;;;;;3.97;0.80;;;;;;;20.01;83.55;102709.84;5010552;28;20038;-35
2022/07/10 08:33:25;;;;;;;2.60;0.82;;;;;;;20.02;83.59;102707.84;5010107;28;20041;-35
2022/07/10 08:35:53;;;;;;;3.10;0.85;;;;;;;20.02;83.25;102694.50;5011276;28;20074;-32
2022/07/10 08:38:21;;;;;;;3.25;0.90;;;;;;;20.10;83.28;102702.28;5010351;28;20048;-35
2022/07/10 08:40:50;;;;;;;3.35;0.80;;;;;;;20.14;83.18;102706.16;5013966;28;20061;-34
2022/07/10 08:43:19;;;;;;;3.08;0.80;;;;;;;20.19;82.18;102708.84;5012600;28;20037;-37
2022/07/10 08:45:48;;;;;;;3.80;0.90;;;;;;;20.29;81.97;102704.94;5013755;28;20423;-32
2022/07/10 08:48:22;;;;;;;2.83;0.57;;;;;;;20.42;82.05;102700.41;5013369;28;20577;-31
2022/07/10 08:50:53;;;;;;;2.78;0.80;;;;;;;20.54;81.42;102704.34;5013620;28;20462;-32
2022/07/10 08:53:29;;;;;;;3.03;0.70;;;;;;;20.68;81.05;102707.09;5013015;28;20057;-38
2022/07/10 08:55:57;;;;;;;3.25;0.70;;;;;;;20.78;80.10;102717.38;5013894;28;20301;-42
2022/07/10 08:58:27;;;;;;;2.70;0.80;;;;;;;20.84;79.89;102704.69;5012616;28;20053;-35
2022/07/10 09:00:55;;;;;;;3.30;0.90;;;;;;;20.92;78.84;102701.94;5012676;28;20058;-40
2022/07/10 09:03:23;;;;;;;6.13;1.25;;;;;;;20.91;76.96;102708.78;5013242;28;20057;-33
2022/07/10 09:05:51;;;;;;;3.00;0.90;;;;;;;20.93;77.50;102697.09;5013006;28;20507;-39
2022/07/10 09:08:23;;;;;;;3.53;0.77;;;;;;;20.95;77.43;102695.59;5012942;28;20049;-33
2022/07/10 09:10:51;;;;;;;5.45;1.35;;;;;;;21.11;78.05;102692.34;5012814;28;20153;-35
2022/07/10 09:13:19;;;;;;;3.22;1.00;;;;;;;21.25;77.58;102696.78;5012917;28;20045;-33
2022/07/10 09:15:53;;;;;;;2.78;0.88;;;;;;;21.61;77.83;102696.56;5009308;28;20710;-38
2022/07/10 09:18:25;;;;;;;3.42;0.90;;;;;;;22.09;77.70;102701.38;5011532;28;20561;-42
2022/07/10 09:20:53;;;;;;;3.00;0.80;;;;;;;22.58;76.51;102697.19;5003190;28;20049;-32
2022/07/10 09:23:22;;;;;;;3.22;0.70;;;;;;;23.18;74.49;102704.78;5013424;28;21201;-32
2022/07/10 09:25:53;;;;;;;3.30;1.00;;;;;;;23.63;70.89;102701.44;5012415;28;20037;-34
2022/07/10 09:28:22;;;;;;;3.50;0.70;;;;;;;23.82;68.26;102698.13;5013370;28;20495;-41
2022/07/10 09:30:50;;;;;;;2.47;0.60;;;;;;;23.80;65.82;102701.31;5012970;28;20529;-33
2022/07/10 09:33:25;;;;;;;2.72;0.88;;;;;;;23.82;64.49;102698.13;5013143;28;20104;-41
2022/07/10 09:36:11;;;;;;;3.80;0.80;;;;;;;23.92;63.36;102697.75;5013614;28;20052;-36
2022/07/10 09:38:57;;;;;;;2.95;0.70;;;;;;;23.98;63.67;102702.06;5012987;28;20052;-35
2022/07/10 09:41:26;;;;;;;2.78;0.75;;;;;;;24.02;63.56;102697.31;5012704;28;20053;-32
2022/07/10 09:43:56;;;;;;;2.20;0.70;;;;;;;24.04;62.38;102697.81;5013400;28;20045;-32
2022/07/10 09:46:26;;;;;;;2.83;0.80;;;;;;;24.13;61.02;102684.31;5012459;28;20056;-33
2022/07/10 09:49:07;;;;;;;3.03;0.80;;;;;;;24.34;60.26;102690.91;5013513;28;20045;-36
2022/07/10 09:51:37;;;;;;;2.10;0.70;;;;;;;24.56;60.23;102683.97;5011266;28;20154;-34
2022/07/10 09:54:14;;;;;;;1.75;0.50;;;;;;;24.83;58.22;102684.53;5012371;28;20066;-35
2022/07/10 09:56:43;;;;;;;2.75;0.90;;;;;;;25.00;57.40;102682.34;5013300;28;20072;-38
2022/07/10 09:59:13;;;;;;;3.22;0.70;;;;;;;25.27;56.41;102675.13;5012703;28;20132;-40
2022/07/10 10:01:45;;;;;;;3.40;0.80;;;;;;;25.54;55.44;102675.63;5011088;28;20054;-39
2022/07/10 10:04:15;;;;;;;2.65;0.60;;;;;;;25.66;53.80;102679.31;5013599;28;20104;-34
2022/07/10 10:06:45;;;;;;;3.47;0.80;;;;;;;25.79;53.86;102670.72;5012390;28;20046;-39
2022/07/10 10:09:20;;;;;;;2.88;0.80;;;;;;;26.01;53.36;102675.94;5012788;28;20050;-39
2022/07/10 10:11:50;;;;;;;3.22;0.70;;;;;;;26.21;52.46;102674.94;5013359;28;20073;-36
2022/07/10 10:14:20;;;;;;;1.88;0.45;;;;;;;26.34;52.71;102676.59;5012588;28;20060;-33
2022/07/10 10:16:48;;;;;;;2.72;0.70;;;;;;;26.38;52.76;102677.50;5013014;28;20073;-38
2022/07/10 10:22:07;;;;;;;3.60;0.82;;;;;;;26.96;51.83;102680.88;5010973;28;20060;-33
2022/07/10 10:24:43;;;;;;;2.65;0.80;;;;;;;27.13;51.50;102673.09;5013212;28;20061;-32
2022/07/10 10:27:11;;;;;;;3.95;0.68;;;;;;;27.19;50.83;102671.59;5012782;28;20129;-37
2022/07/10 10:29:40;;;;;;;2.53;0.75;;;;;;;27.21;49.74;102663.47;5011896;28;20133;-36
2022/07/10 10:32:09;;;;;;;2.35;0.70;;;;;;;27.15;49.50;102664.97;5009247;28;20052;-33
2022/07/10 10:34:43;;;;;;;2.17;0.70;;;;;;;27.17;49.84;102669.13;5013221;28;20042;-41
2022/07/10 10:37:39;;;;;;;1.75;0.60;;;;;;;27.15;48.69;102665.81;5011336;28;20070;-33
2022/07/10 10:40:09;;;;;;;2.97;0.70;;;;;;;26.99;50.40;102674.38;4995145;28;20496;-34
2022/07/10 10:42:38;;;;;;;3.58;0.80;;;;;;;26.86;50.73;102666.19;5011097;28;20387;-36
2022/07/10 10:45:34;;;;;;;3.33;0.70;;;;;;;26.79;50.37;102663.97;5012537;28;20132;-44
2022/07/10 10:48:06;;;;;;;2.63;0.80;;;;;;;26.75;51.62;102661.03;5012307;28;20057;-37
2022/07/10 10:50:56;;;;;;;3.63;0.98;;;;;;;26.87;51.03;102660.09;5011637;28;20069;-39
2022/07/10 10:53:26;;;;;;;3.60;1.10;;;;;;;27.01;51.51;102660.50;5012797;28;20057;-38
2022/07/10 10:56:23;;;;;;;2.97;0.70;;;;;;;27.12;50.44;102651.38;5012855;28;20145;-33
2022/07/10 10:58:52;;;;;;;3.03;0.60;;;;;;;27.05;51.04;102652.84;5011795;28;20479;-35
2022/07/10 11:01:26;;;;;;;2.75;0.70;;;;;;;27.07;51.20;102653.31;5012202;28;20049;-36
2022/07/10 11:04:14;;;;;;;3.63;0.85;;;;;;;27.18;50.05;102653.56;5008411;28;20049;-38
2022/07/10 11:06:45;;;;;;;2.85;0.82;;;;;;;27.06;50.36;102651.66;5012155;28;20072;-38
2022/07/10 11:09:24;;;;;;;3.00;0.73;;;;;;;26.85;50.42;102656.78;5012381;28;20077;-34
2022/07/10 11:12:04;;;;;;;1.85;0.60;;;;;;;26.69;50.75;102647.31;5010983;28;20296;-33
2022/07/10 11:14:33;;;;;;;2.63;0.70;;;;;;;26.45;51.79;102653.16;5012754;28;20064;-35
2022/07/10 11:17:01;;;;;;;3.53;0.95;;;;;;;26.38;51.84;102653.78;5012123;28;20052;-35
2022/07/10 11:19:31;;;;;;;3.10;0.70;;;;;;;26.43;52.05;102645.78;5011900;28;20076;-37
2022/07/10 11:22:24;;;;;;;2.13;0.60;;;;;;;26.40;50.83;102643.63;5011653;28;20049;-38
2022/07/10 11:25:01;;;;;;;4.05;1.02;;;;;;;26.19;52.84;102642.97;5010561;28;20421;-33
2022/07/10 11:27:58;;;;;;;2.38;0.60;;;;;;;26.26;53.11;102643.19;5012011;28;20049;-35
2022/07/10 11:30:26;;;;;;;2.33;0.70;;;;;;;26.28;53.31;102645.69;5001369;28;20054;-33
2022/07/10 11:32:54;;;;;;;3.25;0.80;;;;;;;26.28;53.27;102639.97;5011284;28;20041;-36
2022/07/10 11:35:22;;;;;;;3.03;0.73;;;;;;;26.30;53.75;102638.44;5001522;28;20050;-32
2022/07/10 11:37:52;;;;;;;2.88;0.80;;;;;;;26.47;54.58;102647.91;5012032;28;21227;-34
2022/07/10 11:40:21;;;;;;;3.20;1.05;;;;;;;26.43;53.76;102645.78;5011612;28;20061;-34
2022/07/10 11:42:50;;;;;;;4.40;1.10;;;;;;;26.32;54.69;102646.66;5011473;28;20053;-37
2022/07/10 11:45:24;;;;;;;3.15;1.10;;;;;;;26.30;54.54;102643.34;5008472;28;20341;-36
2022/07/10 11:47:52;;;;;;;3.83;1.20;;;;;;;26.28;54.97;102639.97;5011925;28;20045;-33